Terminal Aerodrome Forecast
Issued by NWS Tallahassee, FL

Home | Current Version | Previous Version | Text Only | Print | Product List | Glossary On
Versions: 1 2 3 4 5 6 7 8 9 10 11 12 13 14 15 16 17 18
000
FTUS42 KTAE 181500 AAA
TAFTLH
TAF AMD
KTLH 181500Z 1815/1912 00000KT 1/4SM FG OVC002
      TEMPO 1815/1816 1SM BR OVC004
     FM181600 24006KT P6SM SCT004 BKN020
     FM181700 22006KT P6SM BKN050
     FM190300 00000KT 4SM BR BKN025
     FM190600 00000KT 1/2SM FG OVC002=

USA.gov is the U.S. government's official web portal to all federal, state and local government web resources and services.